createdAt,value
2022-09-12T00:00:25.417Z,17.51
2022-09-12T00:03:12.967Z,17.83
2022-09-12T00:06:02.538Z,17.77
2022-09-12T00:08:50.071Z,17.82
2022-09-12T00:11:37.623Z,17.94
2022-09-12T00:14:25.163Z,18.02
2022-09-12T00:17:12.734Z,18.00
2022-09-12T00:20:00.289Z,17.45
2022-09-12T00:22:47.865Z,17.67
2022-09-12T00:25:35.410Z,17.79
2022-09-12T00:28:22.990Z,17.90
2022-09-12T00:31:10.513Z,17.66
2022-09-12T00:33:58.095Z,16.43
2022-09-12T00:36:45.661Z,15.79
2022-09-12T00:39:33.231Z,15.81
2022-09-12T00:42:20.785Z,15.74
2022-09-12T00:45:08.354Z,15.64
2022-09-12T00:47:55.937Z,15.53
2022-09-12T00:50:43.468Z,15.17
2022-09-12T00:53:31.034Z,14.96
2022-09-12T00:56:18.586Z,15.01
2022-09-12T00:59:06.146Z,14.65
2022-09-12T01:01:53.775Z,14.60
2022-09-12T01:04:41.497Z,14.46
2022-09-12T01:07:31.036Z,14.01
2022-09-12T01:10:18.596Z,14.04
2022-09-12T01:13:06.312Z,13.92
2022-09-12T01:15:53.862Z,13.50
2022-09-12T01:18:41.677Z,13.46
2022-09-12T01:21:29.288Z,13.45
2022-09-12T01:24:16.903Z,13.47
2022-09-12T01:27:04.441Z,13.63
2022-09-12T01:29:52.008Z,13.52
2022-09-12T01:32:39.543Z,13.72
2022-09-12T01:35:27.213Z,13.97
2022-09-12T01:38:14.798Z,14.00
2022-09-12T01:41:02.370Z,13.93
2022-09-12T01:43:49.921Z,13.80
2022-09-12T01:46:37.484Z,13.77
2022-09-12T01:49:25.016Z,13.52
2022-09-12T01:52:12.630Z,13.21
2022-09-12T01:55:00.173Z,13.46
2022-09-12T01:57:47.734Z,13.48
2022-09-12T02:00:35.295Z,13.42
2022-09-12T02:03:22.871Z,13.41
2022-09-12T02:06:10.417Z,13.46
2022-09-12T02:08:58.001Z,13.55
2022-09-12T02:11:45.557Z,13.77
2022-09-12T02:14:33.119Z,14.02
2022-09-12T02:17:20.700Z,14.09
2022-09-12T02:20:08.269Z,14.07
2022-09-12T02:22:55.803Z,14.16
2022-09-12T02:25:43.377Z,14.12
2022-09-12T02:28:30.920Z,14.26
2022-09-12T02:31:20.481Z,13.87
2022-09-12T02:34:08.026Z,13.61
2022-09-12T02:36:55.671Z,13.87
2022-09-12T02:39:45.371Z,14.01
2022-09-12T02:42:33.199Z,13.84
2022-09-12T02:45:20.813Z,13.75
2022-09-12T02:48:08.347Z,14.74
2022-09-12T02:50:55.903Z,14.73
2022-09-12T02:53:43.557Z,14.35
2022-09-12T02:56:31.110Z,13.77
2022-09-12T02:59:18.689Z,13.56
2022-09-12T03:02:06.256Z,13.72
2022-09-12T03:04:53.849Z,14.14
2022-09-12T03:07:41.403Z,14.23
2022-09-12T03:10:28.973Z,14.01
2022-09-12T03:13:16.527Z,13.79
2022-09-12T03:16:04.116Z,13.73
2022-09-12T03:18:51.659Z,14.19
2022-09-12T03:21:39.216Z,14.86
2022-09-12T03:24:26.765Z,14.32
2022-09-12T03:27:14.336Z,13.96
2022-09-12T03:30:01.882Z,13.53
2022-09-12T03:32:49.536Z,13.70
2022-09-12T03:35:37.089Z,14.04
2022-09-12T03:38:24.644Z,14.25
2022-09-12T03:41:12.201Z,13.75
2022-09-12T03:43:59.751Z,13.45
2022-09-12T03:46:47.309Z,13.42
2022-09-12T03:49:34.873Z,13.59
2022-09-12T03:52:22.478Z,13.88
2022-09-12T03:55:10.047Z,14.24
2022-09-12T03:57:57.575Z,14.05
2022-09-12T04:00:45.221Z,13.53
2022-09-12T04:03:32.814Z,13.63
2022-09-12T04:06:20.357Z,13.48
2022-09-12T04:09:07.909Z,13.02
2022-09-12T04:11:55.480Z,12.73
2022-09-12T04:14:43.062Z,12.89
2022-09-12T04:17:30.624Z,12.29
2022-09-12T04:20:18.182Z,12.68
2022-09-12T04:23:05.741Z,12.34
2022-09-12T04:25:53.289Z,12.64
2022-09-12T04:28:40.862Z,12.36
2022-09-12T04:31:28.392Z,12.49
2022-09-12T04:34:15.977Z,12.86
2022-09-12T04:37:03.530Z,13.07
2022-09-12T04:39:51.118Z,13.11
2022-09-12T04:42:38.706Z,12.79
2022-09-12T04:45:26.290Z,12.79
2022-09-12T04:48:13.828Z,12.74
2022-09-12T04:51:01.398Z,12.96
2022-09-12T04:53:48.927Z,13.08
2022-09-12T04:56:36.484Z,12.36
2022-09-12T04:59:24.065Z,12.36
2022-09-12T05:02:11.638Z,12.45
2022-09-12T05:04:59.338Z,12.84
2022-09-12T05:07:48.851Z,12.47
2022-09-12T05:10:36.414Z,12.46
2022-09-12T05:13:23.966Z,12.65
2022-09-12T05:16:11.594Z,12.96
2022-09-12T05:18:59.158Z,12.90
2022-09-12T05:21:46.717Z,12.99
2022-09-12T05:24:34.259Z,12.80
2022-09-12T05:27:21.803Z,13.30
2022-09-12T05:30:09.358Z,13.68
2022-09-12T05:32:56.909Z,13.78
2022-09-12T05:35:44.490Z,13.90
2022-09-12T05:38:32.030Z,13.65
2022-09-12T05:41:24.192Z,14.09
2022-09-12T05:44:12.493Z,14.57
2022-09-12T05:47:00.148Z,15.19
2022-09-12T05:49:47.695Z,15.26
2022-09-12T05:52:35.272Z,15.94
2022-09-12T05:55:22.818Z,15.42
2022-09-12T05:58:10.445Z,15.42
2022-09-12T06:00:58.060Z,15.30
2022-09-12T06:03:45.640Z,15.23
2022-09-12T06:06:35.207Z,15.89
2022-09-12T06:09:22.791Z,16.37
2022-09-12T06:12:10.368Z,16.77
2022-09-12T06:14:57.941Z,17.01
2022-09-12T06:17:48.341Z,17.36
2022-09-12T06:20:38.915Z,17.54
2022-09-12T06:23:26.455Z,17.72
2022-09-12T06:26:14.017Z,17.98
2022-09-12T06:29:01.562Z,18.19
2022-09-12T06:31:49.204Z,18.40
2022-09-12T06:34:38.749Z,18.56
2022-09-12T06:37:26.299Z,18.75
2022-09-12T06:40:13.877Z,18.83
2022-09-12T06:43:01.465Z,18.98
2022-09-12T06:45:49.043Z,19.01
2022-09-12T06:48:41.571Z,19.18
2022-09-12T06:51:29.573Z,19.22
2022-09-12T06:54:19.131Z,19.48
2022-09-12T06:57:06.674Z,19.77
2022-09-12T06:59:54.245Z,19.59
2022-09-12T07:02:41.840Z,19.49
2022-09-12T07:05:29.425Z,19.52
2022-09-12T07:08:16.980Z,18.76
2022-09-12T07:11:06.559Z,18.94
2022-09-12T07:13:54.120Z,18.39
2022-09-12T07:16:43.700Z,18.76
2022-09-12T07:19:31.302Z,18.39
2022-09-12T07:22:18.876Z,18.21
2022-09-12T07:25:06.420Z,18.30
2022-09-12T07:27:54.023Z,17.76
2022-09-12T07:30:41.577Z,18.60
2022-09-12T07:33:29.153Z,18.23
2022-09-12T07:36:16.718Z,18.21
2022-09-12T07:39:04.275Z,18.17
2022-09-12T07:41:53.795Z,17.85
2022-09-12T07:44:41.372Z,17.65
2022-09-12T07:47:28.895Z,17.67
2022-09-12T07:50:16.566Z,17.45
2022-09-12T07:53:04.104Z,17.70
2022-09-12T07:55:51.673Z,17.80
2022-09-12T07:58:39.241Z,17.85
2022-09-12T08:01:26.865Z,17.55
2022-09-12T08:04:14.473Z,17.23
2022-09-12T08:07:02.012Z,17.09
2022-09-12T08:09:49.586Z,16.64
2022-09-12T08:12:37.117Z,17.17
2022-09-12T08:15:24.701Z,16.98
2022-09-12T08:18:12.249Z,17.12
2022-09-12T08:20:59.895Z,16.74
2022-09-12T08:23:47.565Z,17.43
2022-09-12T08:26:35.245Z,17.53
2022-09-12T08:29:24.763Z,17.84
2022-09-12T08:32:12.327Z,17.71
2022-09-12T08:34:59.874Z,17.72
2022-09-12T08:37:47.453Z,17.81
2022-09-12T08:40:35.012Z,17.38
2022-09-12T08:43:22.604Z,17.40
2022-09-12T08:46:10.282Z,17.66
2022-09-12T08:48:57.888Z,17.38
2022-09-12T08:51:45.435Z,17.98
2022-09-12T08:54:33.046Z,18.27
2022-09-12T08:57:20.604Z,18.94
2022-09-12T09:00:08.184Z,19.27
2022-09-12T09:02:55.827Z,19.40
2022-09-12T09:05:43.418Z,19.46
2022-09-12T09:08:30.957Z,18.80
2022-09-12T09:11:18.516Z,18.16
2022-09-12T09:14:06.054Z,18.27
2022-09-12T09:16:53.607Z,18.29
2022-09-12T09:19:41.136Z,18.38
2022-09-12T09:22:28.708Z,18.44
2022-09-12T09:25:19.702Z,19.04
2022-09-12T09:28:09.733Z,19.66
2022-09-12T09:30:57.308Z,19.38
2022-09-12T09:33:44.960Z,19.42
2022-09-12T09:36:32.532Z,18.86
2022-09-12T09:39:20.085Z,19.47
2022-09-12T09:42:07.645Z,19.68
2022-09-12T09:44:55.211Z,19.56
2022-09-12T09:47:42.756Z,18.99
2022-09-12T09:50:30.327Z,19.26
2022-09-12T09:53:17.902Z,19.41
2022-09-12T09:56:05.460Z,20.02
2022-09-12T09:58:52.999Z,19.96
2022-09-12T10:01:40.583Z,20.13
2022-09-12T10:04:28.223Z,19.71
2022-09-12T10:07:15.812Z,19.91
2022-09-12T10:10:03.381Z,19.23
2022-09-12T10:12:50.935Z,19.79
2022-09-12T10:15:38.543Z,19.13
2022-09-12T10:18:26.130Z,19.34
2022-09-12T10:21:13.677Z,19.48
2022-09-12T10:24:01.252Z,20.15
2022-09-12T10:26:49.992Z,20.84
2022-09-12T10:29:39.811Z,21.32
2022-09-12T10:32:30.651Z,21.06
2022-09-12T10:35:18.726Z,21.53
2022-09-12T10:38:06.270Z,20.83
2022-09-12T10:40:53.981Z,21.03
2022-09-12T10:43:41.574Z,20.33
2022-09-12T10:46:29.247Z,21.55
2022-09-12T10:49:16.804Z,20.96
2022-09-12T10:52:04.369Z,21.09
2022-09-12T10:54:51.902Z,21.44
2022-09-12T10:57:39.460Z,21.42
2022-09-12T11:00:27.041Z,22.02
2022-09-12T11:03:16.617Z,21.71
2022-09-12T11:06:04.202Z,21.83
2022-09-12T11:08:51.758Z,22.42
2022-09-12T11:11:39.297Z,22.49
2022-09-12T11:14:26.866Z,22.57
2022-09-12T11:17:14.420Z,22.68
2022-09-12T11:20:01.981Z,22.97
2022-09-12T11:22:49.516Z,22.97
2022-09-12T11:25:37.074Z,23.13
2022-09-12T11:28:24.612Z,22.77
2022-09-12T11:31:12.198Z,22.74
2022-09-12T11:33:59.899Z,22.98
2022-09-12T11:36:47.464Z,22.99
2022-09-12T11:39:35.011Z,23.47
2022-09-12T11:42:22.561Z,23.46
2022-09-12T11:45:10.118Z,23.25
2022-09-12T11:47:57.644Z,23.21
2022-09-12T11:50:45.286Z,24.12
2022-09-12T11:53:32.811Z,23.94
2022-09-12T11:56:20.356Z,23.76
2022-09-12T11:59:02.756Z,23.49
2022-09-12T12:01:48.920Z,23.90
2022-09-12T12:04:36.536Z,24.24
2022-09-12T12:07:24.076Z,24.63
2022-09-12T12:10:11.637Z,25.06
2022-09-12T12:13:08.726Z,24.62
2022-09-12T12:16:01.703Z,24.91
2022-09-12T12:18:49.309Z,24.06
2022-09-12T12:21:36.877Z,24.94
2022-09-12T12:24:24.437Z,24.04
2022-09-12T12:27:11.987Z,24.59
2022-09-12T12:29:59.549Z,25.21
2022-09-12T12:32:47.082Z,24.91
2022-09-12T12:35:34.634Z,25.13
2022-09-12T12:38:22.166Z,25.38
2022-09-12T12:41:09.711Z,24.88
2022-09-12T12:43:57.247Z,25.39
2022-09-12T12:46:47.195Z,25.44
2022-09-12T12:49:34.793Z,25.64
2022-09-12T12:52:22.364Z,26.05
2022-09-12T12:55:09.905Z,26.44
2022-09-12T12:57:57.567Z,26.50
2022-09-12T13:00:45.150Z,25.63
2022-09-12T13:03:32.716Z,25.07
2022-09-12T13:06:20.280Z,25.75
2022-09-12T13:09:07.855Z,25.60
2022-09-12T13:11:55.423Z,25.69
2022-09-12T13:14:42.976Z,25.91
2022-09-12T13:17:30.537Z,26.29
2022-09-12T13:20:27.905Z,26.28
2022-09-12T13:23:16.099Z,25.93
2022-09-12T13:26:03.655Z,25.76
2022-09-12T13:28:51.206Z,25.66
2022-09-12T13:31:38.790Z,26.27
2022-09-12T13:34:26.347Z,26.47
2022-09-12T13:36:53.579Z,26.50
2022-09-12T13:39:39.838Z,26.82
2022-09-12T13:42:27.555Z,26.32
2022-09-12T13:45:15.071Z,26.27
2022-09-12T13:48:02.621Z,25.71
2022-09-12T13:50:50.158Z,26.14
2022-09-12T13:53:37.800Z,25.68
2022-09-12T13:56:25.323Z,25.89
2022-09-12T13:59:12.882Z,26.04
2022-09-12T14:02:00.538Z,26.03
2022-09-12T14:04:48.107Z,26.76
2022-09-12T14:07:35.657Z,26.72
2022-09-12T14:10:23.181Z,26.96
2022-09-12T14:13:10.741Z,27.07
2022-09-12T14:15:58.327Z,27.39
2022-09-12T14:18:45.946Z,27.39
2022-09-12T14:21:33.530Z,27.59
2022-09-12T14:24:21.069Z,26.31
2022-09-12T14:27:08.644Z,26.95
2022-09-12T14:29:56.226Z,27.25
2022-09-12T14:32:39.136Z,27.24
2022-09-12T14:35:26.690Z,27.21
2022-09-12T14:38:14.258Z,27.35
2022-09-12T14:41:01.839Z,27.52
2022-09-12T14:43:49.369Z,26.76
2022-09-12T14:46:36.963Z,26.48
2022-09-12T14:49:24.546Z,26.32
2022-09-12T14:52:12.102Z,26.50
2022-09-12T14:54:59.623Z,26.67
2022-09-12T14:57:47.213Z,26.82
2022-09-12T15:00:34.767Z,26.67
2022-09-12T15:03:22.449Z,26.36
2022-09-12T15:06:09.980Z,26.23
2022-09-12T15:08:57.631Z,26.19
2022-09-12T15:11:45.161Z,26.29
2022-09-12T15:14:32.726Z,25.94
2022-09-12T15:17:20.275Z,25.57
2022-09-12T15:20:07.841Z,26.12
2022-09-12T15:22:55.374Z,26.06
2022-09-12T15:25:42.941Z,26.34
2022-09-12T15:28:30.498Z,26.39
2022-09-12T15:31:18.064Z,26.59
2022-09-12T15:34:05.673Z,26.50
2022-09-12T15:36:53.229Z,26.85
2022-09-12T15:39:40.808Z,26.48
2022-09-12T15:42:28.514Z,26.34
2022-09-12T15:45:16.081Z,26.40
2022-09-12T15:48:03.685Z,26.34
2022-09-12T15:50:51.215Z,26.46
2022-09-12T15:53:38.778Z,26.26
2022-09-12T15:56:26.325Z,26.23
2022-09-12T15:59:13.888Z,26.63
2022-09-12T16:02:01.523Z,26.56
2022-09-12T16:04:49.103Z,26.93
2022-09-12T16:07:36.652Z,26.90
2022-09-12T16:10:24.200Z,26.94
2022-09-12T16:13:11.773Z,26.83
2022-09-12T16:15:59.413Z,26.87
2022-09-12T16:18:46.997Z,26.84
2022-09-12T16:21:34.663Z,27.06
2022-09-12T16:24:22.215Z,26.76
2022-09-12T16:27:09.759Z,26.27
2022-09-12T16:29:57.343Z,26.46
2022-09-12T16:32:44.945Z,26.49
2022-09-12T16:35:32.484Z,26.48
2022-09-12T16:38:20.062Z,26.22
2022-09-12T16:41:07.617Z,26.46
2022-09-12T16:43:55.204Z,26.73
2022-09-12T16:46:42.822Z,26.57
2022-09-12T16:49:30.446Z,26.58
2022-09-12T16:52:18.007Z,26.10
2022-09-12T16:55:05.556Z,26.44
2022-09-12T16:57:53.115Z,26.36
2022-09-12T17:00:40.673Z,26.19
2022-09-12T17:03:28.238Z,26.68
2022-09-12T17:06:15.779Z,26.84
2022-09-12T17:09:03.329Z,26.50
2022-09-12T17:11:50.894Z,26.61
2022-09-12T17:14:38.439Z,26.98
2022-09-12T17:17:27.986Z,27.04
2022-09-12T17:20:15.540Z,27.07
2022-09-12T17:23:09.502Z,26.91
2022-09-12T17:25:57.386Z,27.06
2022-09-12T17:28:46.943Z,26.96
2022-09-12T17:31:34.580Z,27.33
2022-09-12T17:34:22.237Z,27.49
2022-09-12T17:37:09.764Z,27.63
2022-09-12T17:39:57.373Z,27.59
2022-09-12T17:42:44.981Z,27.76
2022-09-12T17:45:32.609Z,27.72
2022-09-12T17:48:20.155Z,27.73
2022-09-12T17:51:07.707Z,27.69
2022-09-12T17:53:55.245Z,27.73
2022-09-12T17:56:42.794Z,27.58
2022-09-12T17:59:30.335Z,27.50
2022-09-12T18:02:17.907Z,27.25
2022-09-12T18:05:05.441Z,26.76
2022-09-12T18:07:55.095Z,26.49
2022-09-12T18:10:42.633Z,26.70
2022-09-12T18:13:30.200Z,26.64
2022-09-12T18:16:17.796Z,26.29
2022-09-12T18:19:05.375Z,25.95
2022-09-12T18:21:52.905Z,25.57
2022-09-12T18:24:40.454Z,24.36
2022-09-12T18:27:27.998Z,23.82
2022-09-12T18:30:21.459Z,22.49
2022-09-12T18:33:09.267Z,22.04
2022-09-12T18:35:58.839Z,21.96
2022-09-12T18:38:46.395Z,21.93
2022-09-12T18:41:33.958Z,22.33
2022-09-12T18:44:21.506Z,22.23
2022-09-12T18:47:09.060Z,21.30
2022-09-12T18:49:56.583Z,20.96
2022-09-12T18:52:44.191Z,21.41
2022-09-12T18:55:31.771Z,21.63
2022-09-12T18:58:21.351Z,21.68
2022-09-12T19:01:09.558Z,21.68
2022-09-12T19:03:57.217Z,21.47
2022-09-12T19:06:44.798Z,22.21
2022-09-12T19:09:32.339Z,21.98
2022-09-12T19:12:19.991Z,21.64
2022-09-12T19:15:07.537Z,21.48
2022-09-12T19:17:55.095Z,21.40
2022-09-12T19:20:42.640Z,21.87
2022-09-12T19:23:30.261Z,21.09
2022-09-12T19:26:17.796Z,21.02
2022-09-12T19:29:05.466Z,20.85
2022-09-12T19:31:53.005Z,21.38
2022-09-12T19:34:40.558Z,21.55
2022-09-12T19:37:28.198Z,20.73
2022-09-12T19:40:15.792Z,20.86
2022-09-12T19:43:03.400Z,20.82
2022-09-12T19:45:50.955Z,20.09
2022-09-12T19:48:38.620Z,19.29
2022-09-12T19:51:26.156Z,19.52
2022-09-12T19:54:13.739Z,19.84
2022-09-12T19:57:01.291Z,19.83
2022-09-12T19:59:48.870Z,20.40
2022-09-12T20:02:36.444Z,19.71
2022-09-12T20:05:24.053Z,19.13
2022-09-12T20:08:11.599Z,18.90
2022-09-12T20:10:59.161Z,18.77
2022-09-12T20:13:46.739Z,18.29
2022-09-12T20:16:34.360Z,17.29
2022-09-12T20:19:21.925Z,17.67
2022-09-12T20:22:09.487Z,17.58
2022-09-12T20:24:57.037Z,17.55
2022-09-12T20:27:44.603Z,17.77
2022-09-12T20:30:32.139Z,17.83
2022-09-12T20:33:19.699Z,18.12
2022-09-12T20:36:07.279Z,18.11
2022-09-12T20:38:54.933Z,18.06
2022-09-12T20:41:44.468Z,18.07
2022-09-12T20:44:32.041Z,17.83
2022-09-12T20:47:19.621Z,17.88
2022-09-12T20:50:07.259Z,18.32
2022-09-12T20:52:54.793Z,18.11
2022-09-12T20:55:42.409Z,17.82
2022-09-12T20:58:29.982Z,17.71
2022-09-12T21:01:17.617Z,17.86
2022-09-12T21:04:05.196Z,18.52
2022-09-12T21:06:52.791Z,18.48
2022-09-12T21:09:40.350Z,18.47
2022-09-12T21:12:29.916Z,18.33
2022-09-12T21:15:17.453Z,18.22
2022-09-12T21:18:05.213Z,17.96
2022-09-12T21:20:52.761Z,17.57
2022-09-12T21:23:40.322Z,17.66
2022-09-12T21:26:27.881Z,17.63
2022-09-12T21:29:15.451Z,17.45
2022-09-12T21:32:02.998Z,17.23
2022-09-12T21:34:50.651Z,17.05
2022-09-12T21:37:38.197Z,17.22
2022-09-12T21:40:25.751Z,17.28
2022-09-12T21:43:13.404Z,17.10
2022-09-12T21:46:01.003Z,16.91
2022-09-12T21:48:48.585Z,17.00
2022-09-12T21:51:36.145Z,16.87
2022-09-12T21:54:23.711Z,17.07
2022-09-12T21:57:11.273Z,16.77
2022-09-12T21:59:58.824Z,16.75
2022-09-12T22:02:46.409Z,16.46
2022-09-12T22:05:33.971Z,16.33
2022-09-12T22:08:21.510Z,16.21
2022-09-12T22:11:09.087Z,16.35
2022-09-12T22:13:56.623Z,16.27
2022-09-12T22:16:44.176Z,16.26
2022-09-12T22:19:31.731Z,16.42
2022-09-12T22:22:19.287Z,16.50
2022-09-12T22:25:06.949Z,16.58
2022-09-12T22:27:54.490Z,16.54
2022-09-12T22:30:42.059Z,16.80
2022-09-12T22:33:29.600Z,16.78
2022-09-12T22:36:17.198Z,17.03
2022-09-12T22:39:04.751Z,16.69
2022-09-12T22:41:52.276Z,16.77
2022-09-12T22:44:39.915Z,16.66
2022-09-12T22:47:29.455Z,16.68
2022-09-12T22:50:17.015Z,17.12
2022-09-12T22:53:04.570Z,17.28
2022-09-12T22:55:52.232Z,17.15
2022-09-12T22:58:39.763Z,17.08
2022-09-12T23:01:27.336Z,16.71
2022-09-12T23:04:14.895Z,16.84
2022-09-12T23:07:02.444Z,16.74
2022-09-12T23:09:50.018Z,16.66
2022-09-12T23:12:37.579Z,16.76
2022-09-12T23:15:25.121Z,16.48
2022-09-12T23:18:14.692Z,16.11
2022-09-12T23:21:02.223Z,16.06
2022-09-12T23:23:49.780Z,16.26
2022-09-12T23:26:37.347Z,16.04
2022-09-12T23:29:25.002Z,16.68
2022-09-12T23:32:12.544Z,17.66
2022-09-12T23:35:00.114Z,17.62
2022-09-12T23:37:47.667Z,17.09
2022-09-12T23:40:35.234Z,17.54
2022-09-12T23:43:22.773Z,16.81
2022-09-12T23:46:10.448Z,16.74
2022-09-12T23:48:57.991Z,17.61
2022-09-12T23:51:45.558Z,18.05
2022-09-12T23:54:33.106Z,18.85
2022-09-12T23:57:20.659Z,19.52
